Time;durP1;ratioP1;P1;durP2;ratioP2;P2;SDS_P1;SDS_P2;PMS_P1;PMS_P2;Temp;Humidity;BMP_temperature;BMP_pressure;BME280_temperature;BME280_humidity;BME280_pressure;Samples;Min_cycle;Max_cycle;Signal;HPM_P1;HPM_P2
2023/09/24 00:02:20;;;;;;;7.82;2.05;;;13.10;99.90;;;;;;5030866;28;20036;-87
2023/09/24 00:04:46;;;;;;;5.53;2.22;;;13.10;99.90;;;;;;5051604;28;20033;-87
2023/09/24 00:07:14;;;;;;;8.20;2.70;;;13.00;99.90;;;;;;5051722;28;20044;-87
2023/09/24 00:09:40;;;;;;;9.35;2.50;;;13.00;99.90;;;;;;5016567;28;20484;-87
2023/09/24 00:12:05;;;;;;;6.30;2.33;;;13.00;99.90;;;;;;5042176;28;20032;-88
2023/09/24 00:14:31;;;;;;;7.85;3.22;;;13.00;99.90;;;;;;5049343;28;20416;-87
2023/09/24 00:16:57;;;;;;;7.13;2.95;;;13.10;99.90;;;;;;5026151;28;20064;-87
2023/09/24 00:19:24;;;;;;;7.95;2.83;;;13.00;99.90;;;;;;5051189;28;20044;-87
2023/09/24 00:21:50;;;;;;;11.15;6.40;;;13.10;99.90;;;;;;5017035;28;20076;-88
2023/09/24 00:24:17;;;;;;;6.80;2.67;;;13.20;99.90;;;;;;5017585;28;20080;-88
2023/09/24 00:26:43;;;;;;;9.35;2.70;;;13.10;99.90;;;;;;5033548;28;20056;-88
2023/09/24 00:29:14;;;;;;;10.50;5.65;;;13.10;99.90;;;;;;5033475;28;20040;-88
2023/09/24 00:31:40;;;;;;;6.03;2.30;;;13.10;99.90;;;;;;5017113;28;20044;-88
2023/09/24 00:34:06;;;;;;;4.78;1.90;;;13.10;99.90;;;;;;5038046;28;20041;-88
2023/09/24 00:36:33;;;;;;;7.93;4.45;;;13.00;99.90;;;;;;5020817;28;20040;-88
2023/09/24 00:39:00;;;;;;;5.47;2.50;;;13.00;99.90;;;;;;5033084;28;20053;-88
2023/09/24 00:41:26;;;;;;;5.45;2.08;;;13.00;99.90;;;;;;5033288;28;20496;-87
2023/09/24 00:43:52;;;;;;;8.32;5.55;;;12.90;99.90;;;;;;5016881;28;20052;-87
2023/09/24 00:46:21;;;;;;;7.82;3.15;;;13.00;99.90;;;;;;5016999;28;20033;-87
2023/09/24 00:48:48;;;;;;;7.22;2.67;;;13.00;99.90;;;;;;5016668;28;20029;-87
2023/09/24 00:51:18;;;;;;;6.10;2.85;;;12.90;99.90;;;;;;5049710;28;20601;-88
2023/09/24 00:53:46;;;;;;;7.70;2.90;;;12.90;99.90;;;;;;5016886;28;20079;-88
2023/09/24 00:56:12;;;;;;;6.22;2.65;;;12.90;99.90;;;;;;5016418;28;20041;-87
2023/09/24 00:58:39;;;;;;;8.02;3.67;;;12.90;99.90;;;;;;5032593;28;20033;-88
2023/09/24 01:01:05;;;;;;;17.60;7.05;;;12.90;99.90;;;;;;5016254;28;20037;-88
2023/09/24 01:03:31;;;;;;;7.63;3.10;;;13.00;99.90;;;;;;5017155;28;20055;-87
2023/09/24 01:05:57;;;;;;;8.48;3.10;;;12.90;99.90;;;;;;5016247;28;20045;-88
2023/09/24 01:08:25;;;;;;;26.88;3.67;;;12.90;99.90;;;;;;5032167;28;20037;-88
2023/09/24 01:10:51;;;;;;;15.73;2.55;;;12.90;99.90;;;;;;5031278;28;20048;-87
2023/09/24 01:13:24;;;;;;;52.67;3.90;;;12.80;99.90;;;;;;5015136;28;20033;-88
2023/09/24 01:15:51;;;;;;;31.45;2.83;;;12.70;99.90;;;;;;5031842;28;20128;-87
2023/09/24 01:18:18;;;;;;;34.92;3.08;;;12.60;99.90;;;;;;5015470;28;20041;-88
2023/09/24 01:20:44;;;;;;;25.83;3.40;;;12.50;99.90;;;;;;5015440;28;20041;-87
2023/09/24 01:23:16;;;;;;;27.25;7.68;;;12.50;99.90;;;;;;5015497;28;20066;-87
2023/09/24 01:25:45;;;;;;;19.90;6.25;;;12.60;99.90;;;;;;5016155;28;20095;-87
2023/09/24 01:28:12;;;;;;;17.65;6.70;;;12.70;99.90;;;;;;5016598;28;20080;-87
2023/09/24 01:30:38;;;;;;;26.20;7.32;;;12.80;99.90;;;;;;5031886;28;20076;-87
2023/09/24 01:33:05;;;;;;;32.95;9.60;;;12.80;99.90;;;;;;5015839;28;20040;-87
2023/09/24 01:35:34;;;;;;;16.25;7.93;;;12.80;99.90;;;;;;5032609;28;20048;-87
2023/09/24 01:38:04;;;;;;;10.80;3.83;;;12.80;99.90;;;;;;5032025;28;20076;-87
2023/09/24 01:40:34;;;;;;;14.77;3.40;;;12.80;99.90;;;;;;5016360;28;20132;-87
2023/09/24 01:43:05;;;;;;;14.82;3.08;;;12.70;99.90;;;;;;5016384;28;20412;-87
2023/09/24 01:45:34;;;;;;;18.20;7.88;;;12.70;99.90;;;;;;5032398;28;20052;-87
2023/09/24 01:48:02;;;;;;;30.05;3.38;;;12.80;99.90;;;;;;5015519;28;20511;-87
2023/09/24 01:50:28;;;;;;;24.38;4.40;;;12.80;99.90;;;;;;5051673;28;20420;-88
2023/09/24 01:53:00;;;;;;;50.85;9.20;;;12.70;99.90;;;;;;5019633;28;20040;-87
2023/09/24 01:55:27;;;;;;;14.60;3.33;;;12.80;99.90;;;;;;5036428;28;20052;-88
2023/09/24 01:57:53;;;;;;;61.97;4.85;;;12.80;99.90;;;;;;5019806;28;20037;-87
2023/09/24 02:00:26;;;;;;;62.80;4.95;;;12.70;99.90;;;;;;5019481;28;20037;-87
2023/09/24 02:02:54;;;;;;;22.58;3.22;;;12.70;99.90;;;;;;5036070;28;20040;-87
2023/09/24 02:05:20;;;;;;;85.35;6.55;;;12.60;99.90;;;;;;5036294;28;20124;-88
2023/09/24 02:07:49;;;;;;;64.65;5.35;;;12.60;99.90;;;;;;5019902;28;20033;-87
2023/09/24 02:10:18;;;;;;;53.08;5.63;;;12.60;99.90;;;;;;5036079;28;20039;-87
2023/09/24 02:12:48;;;;;;;27.05;3.92;;;12.50;99.90;;;;;;5019124;28;20409;-87
2023/09/24 02:15:18;;;;;;;9.82;2.80;;;12.50;99.90;;;;;;5019721;28;20041;-87
2023/09/24 02:17:47;;;;;;;13.07;2.55;;;12.50;99.90;;;;;;5035766;28;20048;-87
2023/09/24 02:20:25;;;;;;;36.15;3.70;;;12.50;99.90;;;;;;5035807;28;20424;-87
2023/09/24 02:22:52;;;;;;;18.52;3.67;;;12.50;99.90;;;;;;5035039;28;20041;-87
2023/09/24 02:25:19;;;;;;;5.70;2.42;;;12.50;99.90;;;;;;5035311;28;20041;-88
2023/09/24 02:27:48;;;;;;;11.38;2.25;;;12.40;99.90;;;;;;5018209;28;20037;-88
2023/09/24 02:30:15;;;;;;;7.82;5.07;;;12.40;99.90;;;;;;5018510;28;20576;-87
2023/09/24 02:32:42;;;;;;;8.10;2.97;;;12.50;99.90;;;;;;5018713;28;20037;-87
2023/09/24 02:35:11;;;;;;;5.50;2.63;;;12.50;99.90;;;;;;5053281;28;20069;-87
2023/09/24 02:37:44;;;;;;;6.90;2.60;;;12.40;99.90;;;;;;5018491;28;20037;-88
2023/09/24 02:40:28;;;;;;;5.70;2.45;;;12.40;99.90;;;;;;5018982;28;20051;-88
2023/09/24 02:42:56;;;;;;;4.55;1.95;;;12.30;99.90;;;;;;5036097;28;20029;-88
2023/09/24 02:45:22;;;;;;;5.80;2.58;;;12.30;99.90;;;;;;5019111;28;20052;-88
2023/09/24 02:47:51;;;;;;;8.00;2.55;;;12.30;99.90;;;;;;5018388;28;20043;-88
2023/09/24 02:50:23;;;;;;;6.45;1.88;;;12.30;99.90;;;;;;5018188;28;20048;-88
2023/09/24 02:52:52;;;;;;;8.98;2.92;;;12.20;99.90;;;;;;5034843;28;20747;-88
2023/09/24 02:55:18;;;;;;;9.55;5.45;;;12.20;99.90;;;;;;5018630;28;20045;-88
2023/09/24 02:57:46;;;;;;;11.40;2.70;;;12.20;99.90;;;;;;5019138;28;20041;-88
2023/09/24 03:00:21;;;;;;;6.30;2.42;;;12.20;99.90;;;;;;5019400;28;20047;-88
2023/09/24 03:02:47;;;;;;;8.60;6.35;;;12.20;99.90;;;;;;5040343;28;20651;-88
2023/09/24 03:05:24;;;;;;;9.15;2.70;;;12.20;99.90;;;;;;5040438;28;20041;-88
2023/09/24 03:07:50;;;;;;;11.98;3.03;;;12.20;99.90;;;;;;5035236;28;20087;-88
2023/09/24 03:10:17;;;;;;;6.32;2.55;;;12.10;99.90;;;;;;5018286;28;20043;-87
2023/09/24 03:12:43;;;;;;;6.30;2.40;;;12.10;99.90;;;;;;5017930;28;20039;-88
2023/09/24 03:15:12;;;;;;;8.43;3.10;;;12.00;99.90;;;;;;5018343;28;20072;-87
2023/09/24 03:17:39;;;;;;;8.70;3.08;;;12.10;99.90;;;;;;5018019;28;20041;-88
2023/09/24 03:20:11;;;;;;;10.48;6.60;;;12.00;99.90;;;;;;5018588;28;20041;-87
2023/09/24 03:22:37;;;;;;;10.13;6.00;;;12.10;99.90;;;;;;5051680;28;20083;-87
2023/09/24 03:25:02;;;;;;;8.23;3.15;;;12.10;99.90;;;;;;5018111;28;20041;-87
2023/09/24 03:27:28;;;;;;;7.53;3.17;;;12.10;99.90;;;;;;5018186;28;20079;-87
2023/09/24 03:29:54;;;;;;;9.05;3.33;;;12.00;99.90;;;;;;5018098;28;20071;-88
2023/09/24 03:32:19;;;;;;;10.07;2.88;;;12.00;99.90;;;;;;5018005;28;20080;-88
2023/09/24 03:34:46;;;;;;;10.82;6.75;;;12.00;99.90;;;;;;5033697;28;20484;-87
2023/09/24 03:37:14;;;;;;;11.20;6.10;;;12.00;99.90;;;;;;5033982;28;20049;-87
2023/09/24 03:39:40;;;;;;;7.45;3.00;;;12.10;99.90;;;;;;5034156;28;20124;-87
2023/09/24 03:42:05;;;;;;;8.40;2.92;;;12.00;99.90;;;;;;5018260;28;20044;-87
2023/09/24 03:44:31;;;;;;;10.15;5.97;;;12.00;99.90;;;;;;5034156;28;20041;-88
2023/09/24 03:46:56;;;;;;;6.78;2.80;;;12.00;99.90;;;;;;5016458;28;20090;-88
2023/09/24 03:49:22;;;;;;;7.30;2.78;;;12.00;99.90;;;;;;5014061;28;20037;-87
2023/09/24 03:51:48;;;;;;;9.77;6.47;;;11.90;99.90;;;;;;5017222;28;20032;-87
2023/09/24 03:54:14;;;;;;;10.55;2.90;;;12.00;99.90;;;;;;5017280;28;20045;-87
2023/09/24 03:56:40;;;;;;;8.85;2.50;;;11.90;99.90;;;;;;5017879;28;20110;-88
2023/09/24 03:59:05;;;;;;;7.35;2.85;;;11.90;99.90;;;;;;5017047;28;20124;-88
2023/09/24 04:01:31;;;;;;;10.55;6.53;;;11.80;99.90;;;;;;5033631;28;20048;-88
2023/09/24 04:03:59;;;;;;;9.30;3.03;;;11.90;99.90;;;;;;5017429;28;20037;-87
2023/09/24 04:06:25;;;;;;;9.07;3.10;;;11.90;99.90;;;;;;5017868;28;20029;-87
2023/09/24 04:08:51;;;;;;;12.43;4.07;;;11.90;99.90;;;;;;5017145;28;20396;-87
2023/09/24 04:11:18;;;;;;;10.80;3.28;;;11.80;99.90;;;;;;5015953;28;20036;-87
2023/09/24 04:13:43;;;;;;;9.70;3.85;;;11.80;99.90;;;;;;5015478;28;20033;-87
2023/09/24 04:16:10;;;;;;;9.20;3.50;;;11.80;99.90;;;;;;5026236;28;20052;-87
2023/09/24 04:18:36;;;;;;;6.72;2.95;;;11.80;99.90;;;;;;5016214;28;20041;-87
2023/09/24 04:21:02;;;;;;;7.70;2.72;;;11.80;99.90;;;;;;5033612;28;20119;-88
2023/09/24 04:23:28;;;;;;;8.35;3.13;;;11.70;99.90;;;;;;5033164;28;20041;-87
2023/09/24 04:25:54;;;;;;;7.45;3.10;;;11.70;99.90;;;;;;5032948;28;20041;-86
2023/09/24 04:28:20;;;;;;;7.47;3.33;;;11.70;99.90;;;;;;5032640;28;20049;-87
2023/09/24 04:30:46;;;;;;;8.85;3.47;;;11.70;99.90;;;;;;5016081;28;20037;-87
2023/09/24 04:33:12;;;;;;;12.15;7.40;;;11.70;99.90;;;;;;5033176;28;20048;-87
2023/09/24 04:35:38;;;;;;;8.23;3.28;;;11.70;99.90;;;;;;5017063;28;20101;-87
2023/09/24 04:38:03;;;;;;;11.10;3.58;;;11.70;99.90;;;;;;5036359;28;20033;-87
2023/09/24 04:40:31;;;;;;;9.45;3.72;;;11.70;99.90;;;;;;5035155;28;20095;-85
2023/09/24 04:42:56;;;;;;;12.68;7.88;;;11.70;99.90;;;;;;5035381;28;20044;-88
2023/09/24 04:45:22;;;;;;;9.80;3.72;;;11.70;99.90;;;;;;5034885;28;20412;-88
2023/09/24 04:47:48;;;;;;;8.43;3.17;;;11.70;99.90;;;;;;5034824;28;20407;-88
2023/09/24 04:50:15;;;;;;;11.15;4.25;;;11.60;99.90;;;;;;5034019;28;20047;-88
2023/09/24 04:52:44;;;;;;;12.02;7.85;;;11.60;99.90;;;;;;5016308;28;20523;-88
2023/09/24 04:55:11;;;;;;;8.00;3.40;;;11.60;99.90;;;;;;5016155;28;20515;-88
2023/09/24 04:57:37;;;;;;;11.13;3.90;;;11.60;99.90;;;;;;5016665;28;20056;-88
2023/09/24 05:00:03;;;;;;;9.80;4.00;;;11.60;99.90;;;;;;5016768;28;20044;-88
2023/09/24 05:02:29;;;;;;;13.25;8.30;;;11.60;99.90;;;;;;5016829;28;20040;-88
2023/09/24 05:04:54;;;;;;;9.20;4.00;;;11.60;99.90;;;;;;5016975;28;20040;-87
2023/09/24 05:07:20;;;;;;;9.25;3.83;;;11.60;99.90;;;;;;5017306;28;20476;-89
2023/09/24 05:09:46;;;;;;;8.32;3.88;;;11.50;99.90;;;;;;5012461;28;20091;-88
2023/09/24 05:12:14;;;;;;;10.70;4.40;;;11.50;99.90;;;;;;5028027;28;20044;-88
2023/09/24 05:14:40;;;;;;;8.77;3.75;;;11.50;99.90;;;;;;5015059;28;20037;-87
2023/09/24 05:17:05;;;;;;;12.02;5.60;;;11.40;99.90;;;;;;5016949;28;20052;-88
2023/09/24 05:19:31;;;;;;;16.02;9.05;;;11.40;99.90;;;;;;5032496;28;20036;-88
2023/09/24 05:21:57;;;;;;;15.10;9.98;;;11.50;99.90;;;;;;5034088;28;20120;-87
2023/09/24 05:24:22;;;;;;;12.57;4.28;;;11.50;99.90;;;;;;5022355;28;20041;-87
2023/09/24 05:26:48;;;;;;;14.90;9.52;;;11.50;99.90;;;;;;5041453;28;20114;-86
2023/09/24 05:29:13;;;;;;;9.55;4.43;;;11.50;99.90;;;;;;5036783;28;20073;-87
2023/09/24 05:31:39;;;;;;;10.63;3.97;;;11.50;99.90;;;;;;5020148;28;20041;-87
2023/09/24 05:34:06;;;;;;;11.95;4.82;;;11.40;99.90;;;;;;5036805;28;20037;-88
2023/09/24 05:36:31;;;;;;;13.00;4.35;;;11.40;99.90;;;;;;5036272;28;20582;-87
2023/09/24 05:38:57;;;;;;;13.75;4.70;;;11.30;99.90;;;;;;5019404;28;20036;-87
2023/09/24 05:41:24;;;;;;;10.07;4.63;;;11.30;99.90;;;;;;5053092;28;20087;-87
2023/09/24 05:43:50;;;;;;;15.35;5.43;;;11.30;99.90;;;;;;5054392;28;20070;-87
2023/09/24 05:46:16;;;;;;;9.57;4.00;;;11.30;99.90;;;;;;5020501;28;20101;-87
2023/09/24 05:48:41;;;;;;;10.48;5.45;;;11.30;99.90;;;;;;5019638;28;20069;-87
2023/09/24 05:51:07;;;;;;;10.80;5.07;;;11.30;99.90;;;;;;5036602;28;20037;-87
2023/09/24 05:53:33;;;;;;;9.75;4.30;;;11.30;99.90;;;;;;5035894;28;20404;-87
2023/09/24 05:56:02;;;;;;;16.25;12.48;;;11.30;99.90;;;;;;5035726;28;20064;-87
2023/09/24 05:58:28;;;;;;;16.52;12.77;;;11.40;99.90;;;;;;5019450;28;20045;-87
2023/09/24 06:00:55;;;;;;;13.98;5.47;;;11.40;99.90;;;;;;5036023;28;20389;-87
2023/09/24 06:03:21;;;;;;;10.25;5.05;;;11.40;99.90;;;;;;5035961;28;20041;-88
2023/09/24 06:05:47;;;;;;;10.18;4.10;;;11.40;99.90;;;;;;5015783;28;20045;-87
2023/09/24 06:08:13;;;;;;;9.27;3.80;;;11.30;99.90;;;;;;5028502;28;20117;-87
2023/09/24 06:10:45;;;;;;;17.48;12.82;;;11.30;99.90;;;;;;5018362;28;20125;-87
2023/09/24 06:13:15;;;;;;;14.95;5.90;;;11.40;99.90;;;;;;5035339;28;20496;-88
2023/09/24 06:15:44;;;;;;;13.50;5.65;;;11.40;99.90;;;;;;5019300;28;20064;-87
2023/09/24 06:18:11;;;;;;;10.45;4.60;;;11.40;99.90;;;;;;5019148;28;20553;-88
2023/09/24 06:20:38;;;;;;;11.60;5.70;;;11.30;99.90;;;;;;5019272;28;20049;-88
2023/09/24 06:23:04;;;;;;;12.70;5.18;;;11.30;99.90;;;;;;5036246;28;20408;-87
2023/09/24 06:25:30;;;;;;;16.17;12.27;;;11.30;99.90;;;;;;5018769;28;20511;-87
2023/09/24 06:27:56;;;;;;;11.48;5.63;;;11.40;99.90;;;;;;5019926;28;20037;-88
2023/09/24 06:30:22;;;;;;;12.18;5.35;;;11.40;99.90;;;;;;5035750;28;20037;-88
2023/09/24 06:32:47;;;;;;;12.77;6.20;;;11.40;99.90;;;;;;5035528;28;20573;-88
2023/09/24 06:35:13;;;;;;;9.82;5.22;;;11.40;99.90;;;;;;5037477;28;20127;-88
2023/09/24 06:37:38;;;;;;;12.93;5.50;;;11.40;99.90;;;;;;5041141;28;20045;-88
2023/09/24 06:40:05;;;;;;;12.13;5.78;;;11.40;99.90;;;;;;5018479;28;20045;-88
2023/09/24 06:42:31;;;;;;;12.27;5.88;;;11.40;99.90;;;;;;5018752;28;20071;-88
2023/09/24 06:44:57;;;;;;;18.48;13.98;;;11.50;99.90;;;;;;5018668;28;20044;-86
2023/09/24 06:47:22;;;;;;;12.95;6.03;;;11.60;99.90;;;;;;5019000;28;20029;-87
2023/09/24 06:49:51;;;;;;;15.63;5.75;;;11.60;99.90;;;;;;5018559;28;20149;-87
2023/09/24 06:52:17;;;;;;;12.02;6.63;;;11.60;99.90;;;;;;5017714;28;20143;-87
2023/09/24 06:54:43;;;;;;;12.07;5.90;;;11.70;99.90;;;;;;5018247;28;20149;-87
2023/09/24 06:57:09;;;;;;;14.00;6.43;;;11.70;99.90;;;;;;5034983;28;20076;-87
2023/09/24 06:59:34;;;;;;;14.52;5.82;;;11.80;99.90;;;;;;5034545;28;20504;-87
2023/09/24 07:02:00;;;;;;;16.92;14.10;;;11.80;99.90;;;;;;5018409;28;20389;-88
2023/09/24 07:04:25;;;;;;;13.15;6.47;;;11.90;99.90;;;;;;5034801;28;20408;-87
2023/09/24 07:06:51;;;;;;;17.27;14.00;;;12.00;99.90;;;;;;5034997;28;20044;-88
2023/09/24 07:09:17;;;;;;;16.42;12.73;;;12.10;99.90;;;;;;5034639;28;20516;-88
2023/09/24 07:11:43;;;;;;;14.32;4.93;;;12.20;99.90;;;;;;5018305;28;20037;-88
2023/09/24 07:14:09;;;;;;;14.18;4.53;;;12.30;99.90;;;;;;5014928;28;20132;-87
2023/09/24 07:16:35;;;;;;;13.43;5.05;;;12.30;99.90;;;;;;5016032;28;20068;-88
2023/09/24 07:19:01;;;;;;;12.95;5.03;;;12.30;99.90;;;;;;5009042;28;20404;-88
2023/09/24 07:21:31;;;;;;;14.68;9.95;;;12.30;99.90;;;;;;5017454;28;20037;-88
2023/09/24 07:23:58;;;;;;;9.85;3.97;;;12.40;99.90;;;;;;5018184;28;20028;-88
2023/09/24 07:26:26;;;;;;;13.02;4.75;;;12.40;99.90;;;;;;5034443;28;20128;-88
2023/09/24 07:28:52;;;;;;;14.45;9.70;;;12.40;99.90;;;;;;5017875;28;20080;-88
2023/09/24 07:31:23;;;;;;;13.77;5.43;;;12.50;99.90;;;;;;5034719;28;20049;-88
2023/09/24 07:33:52;;;;;;;19.90;10.30;;;12.50;99.90;;;;;;5018011;28;20029;-88
2023/09/24 07:36:18;;;;;;;10.98;4.75;;;12.60;99.90;;;;;;5033438;28;20086;-87
2023/09/24 07:38:44;;;;;;;9.48;4.47;;;12.60;99.90;;;;;;5033481;28;20033;-87
2023/09/24 07:41:10;;;;;;;11.13;4.28;;;12.60;99.90;;;;;;5018319;28;20095;-88
2023/09/24 07:43:42;;;;;;;13.25;6.00;;;12.60;99.90;;;;;;5034961;28;20127;-87
2023/09/24 07:46:14;;;;;;;16.05;5.97;;;12.70;99.90;;;;;;5019926;28;20045;-88
2023/09/24 07:48:42;;;;;;;14.25;10.43;;;12.80;99.90;;;;;;5022230;28;20041;-88
2023/09/24 07:51:08;;;;;;;10.40;5.05;;;12.90;99.90;;;;;;5017735;28;20431;-88
2023/09/24 07:53:33;;;;;;;16.52;11.00;;;12.90;99.90;;;;;;5034470;28;20052;-88
2023/09/24 07:56:07;;;;;;;12.13;5.22;;;13.10;99.90;;;;;;5051709;28;20433;-88
2023/09/24 07:58:33;;;;;;;12.25;4.93;;;13.10;99.90;;;;;;5033676;28;20040;-88
2023/09/24 08:01:04;;;;;;;14.63;10.05;;;13.10;99.90;;;;;;5017588;28;20041;-88
2023/09/24 08:03:30;;;;;;;26.02;5.55;;;13.20;99.90;;;;;;5017997;28;20504;-88
2023/09/24 08:05:57;;;;;;;12.05;4.90;;;13.30;99.90;;;;;;5034334;28;20041;-87
2023/09/24 08:08:23;;;;;;;11.75;4.90;;;13.30;99.90;;;;;;5033715;28;20033;-88
2023/09/24 08:10:50;;;;;;;12.40;6.10;;;13.40;99.90;;;;;;5017729;28;20535;-88
2023/09/24 08:13:16;;;;;;;15.25;9.93;;;13.40;99.90;;;;;;5049904;28;20047;-87
2023/09/24 08:15:42;;;;;;;15.55;9.60;;;13.60;99.90;;;;;;5016853;28;20112;-87
2023/09/24 08:18:09;;;;;;;16.00;9.27;;;13.70;99.90;;;;;;5008957;28;20415;-88
2023/09/24 08:20:38;;;;;;;11.93;5.03;;;13.70;99.90;;;;;;5017070;28;20037;-87
2023/09/24 08:23:04;;;;;;;10.02;4.30;;;13.80;99.90;;;;;;5034009;28;20040;-87
2023/09/24 08:25:31;;;;;;;11.30;5.18;;;13.80;99.90;;;;;;5033555;28;20091;-87
2023/09/24 08:27:57;;;;;;;14.80;9.73;;;13.80;99.90;;;;;;5016987;28;20075;-88
2023/09/24 08:30:23;;;;;;;10.48;4.80;;;13.90;99.90;;;;;;5038488;28;20617;-88
2023/09/24 08:32:49;;;;;;;10.68;3.75;;;14.00;99.90;;;;;;5039791;28;20029;-88
2023/09/24 08:35:15;;;;;;;11.95;5.07;;;14.00;99.90;;;;;;5018198;28;20044;-87
2023/09/24 08:37:40;;;;;;;12.57;5.75;;;14.10;99.90;;;;;;5033054;28;20036;-87
2023/09/24 08:40:09;;;;;;;14.15;8.45;;;14.20;99.90;;;;;;5016690;28;20048;-87
2023/09/24 08:42:36;;;;;;;14.30;7.38;;;14.30;99.90;;;;;;5017420;28;20412;-87
2023/09/24 08:45:12;;;;;;;12.75;8.23;;;14.40;99.90;;;;;;5033705;28;20037;-87
2023/09/24 08:47:39;;;;;;;10.57;5.28;;;14.50;99.90;;;;;;5033406;28;20112;-87
2023/09/24 08:50:07;;;;;;;13.40;7.75;;;14.60;99.90;;;;;;5033321;28;20029;-88
2023/09/24 08:52:43;;;;;;;14.60;8.32;;;14.60;99.90;;;;;;5016863;28;20044;-88
2023/09/24 08:55:10;;;;;;;8.40;3.67;;;14.70;99.90;;;;;;5032154;28;20080;-88
2023/09/24 08:57:40;;;;;;;13.45;7.70;;;14.70;99.90;;;;;;5033129;28;20405;-88
2023/09/24 09:00:10;;;;;;;13.20;7.93;;;14.80;99.90;;;;;;5033108;28;20052;-88
2023/09/24 09:02:36;;;;;;;14.68;7.68;;;14.90;99.90;;;;;;5016997;28;20124;-89
2023/09/24 09:05:09;;;;;;;9.13;3.22;;;15.00;99.90;;;;;;5033346;28;20049;-88
2023/09/24 09:07:35;;;;;;;11.05;4.00;;;15.00;99.90;;;;;;5016507;28;20455;-88
2023/09/24 09:10:04;;;;;;;12.80;6.80;;;15.10;99.90;;;;;;5033469;28;20041;-89
2023/09/24 09:12:29;;;;;;;11.52;6.63;;;15.20;99.90;;;;;;5017014;28;20044;-88
2023/09/24 09:14:56;;;;;;;12.05;3.30;;;15.30;99.90;;;;;;5032699;28;20045;-88
2023/09/24 09:17:22;;;;;;;12.38;7.20;;;15.30;99.90;;;;;;5016634;28;20068;-89
2023/09/24 09:19:49;;;;;;;11.23;2.65;;;15.40;99.90;;;;;;5016255;28;20044;-88
2023/09/24 09:22:27;;;;;;;13.07;6.72;;;15.50;99.90;;;;;;5016748;28;20063;-89
2023/09/24 09:25:04;;;;;;;12.20;6.35;;;15.50;99.90;;;;;;5033214;28;20120;-89
2023/09/24 09:27:32;;;;;;;11.60;5.68;;;15.70;99.90;;;;;;5015938;28;20458;-89
2023/09/24 09:30:15;;;;;;;11.50;5.90;;;15.80;99.90;;;;;;5016339;28;20037;-88
2023/09/24 09:32:43;;;;;;;10.60;3.42;;;15.80;99.90;;;;;;5033041;28;20041;-88
2023/09/24 09:35:09;;;;;;;9.93;2.72;;;15.80;99.90;;;;;;5016418;28;20040;-89
2023/09/24 09:37:35;;;;;;;9.88;3.10;;;15.80;99.90;;;;;;5014795;28;20037;-89
2023/09/24 09:40:01;;;;;;;12.07;4.88;;;15.90;99.90;;;;;;5029547;28;20057;-89
2023/09/24 09:42:34;;;;;;;11.80;3.60;;;15.90;99.90;;;;;;5031842;28;20048;-89
2023/09/24 09:45:07;;;;;;;;;;;15.90;99.90;;;;;;5033410;28;20125;-89
2023/09/24 09:47:34;;;;;;;9.00;3.75;;;16.00;99.90;;;;;;5027538;28;19923;-89
2023/09/24 09:50:01;;;;;;;12.27;5.63;;;16.00;99.90;;;;;;5016071;28;20500;-89
2023/09/24 09:52:38;;;;;;;8.90;2.75;;;16.10;99.90;;;;;;5033016;28;20147;-90
2023/09/24 09:55:05;;;;;;;9.98;4.97;;;16.20;99.90;;;;;;5016403;28;20033;-89
2023/09/24 09:57:34;;;;;;;9.27;3.22;;;16.20;99.90;;;;;;5011309;28;20042;-89
2023/09/24 10:00:05;;;;;;;11.30;5.07;;;16.30;99.90;;;;;;5032577;28;20118;-89
2023/09/24 10:02:34;;;;;;;8.38;3.22;;;16.40;99.90;;;;;;5015326;28;20045;-89
2023/09/24 10:05:01;;;;;;;10.20;4.07;;;16.40;99.90;;;;;;5032136;28;20109;-89
2023/09/24 10:07:27;;;;;;;10.27;4.65;;;16.50;99.90;;;;;;5027279;28;20045;-90
2023/09/24 10:09:52;;;;;;;10.50;3.90;;;16.60;99.90;;;;;;5010866;28;20041;-89
2023/09/24 10:12:35;;;;;;;9.63;3.22;;;16.60;99.90;;;;;;5030730;28;20033;-90
2023/09/24 10:15:26;;;;;;;10.18;3.60;;;16.60;99.90;;;;;;5035758;28;20082;-90
2023/09/24 10:18:11;;;;;;;10.07;2.67;;;16.70;99.90;;;;;;5030546;28;20116;-90
2023/09/24 10:20:48;;;;;;;8.35;3.47;;;16.70;99.90;;;;;;5021402;28;20041;-90
2023/09/24 10:23:29;;;;;;;9.30;3.42;;;16.80;99.90;;;;;;5036590;28;20099;-90
2023/09/24 10:26:00;;;;;;;5.22;1.80;;;16.90;99.90;;;;;;5029472;28;20063;-90
2023/09/24 10:28:48;;;;;;;7.88;2.38;;;16.90;99.90;;;;;;5024420;28;20040;-90
2023/09/24 10:31:16;;;;;;;10.07;2.70;;;16.90;99.90;;;;;;5021826;28;20037;-90
2023/09/24 10:33:56;;;;;;;8.10;2.55;;;17.10;99.90;;;;;;5037162;28;20468;-89
2023/09/24 10:36:30;;;;;;;6.85;2.13;;;17.20;99.90;;;;;;5019530;28;20500;-89
2023/09/24 10:39:07;;;;;;;8.65;2.80;;;17.20;99.90;;;;;;5019791;28;20053;-89
2023/09/24 10:41:34;;;;;;;8.55;2.70;;;17.30;99.90;;;;;;5030679;28;20044;-88
2023/09/24 10:44:25;;;;;;;8.20;2.35;;;17.30;99.90;;;;;;5018530;28;20048;-89
2023/09/24 10:46:52;;;;;;;9.60;2.58;;;17.40;99.90;;;;;;5032363;28;20060;-89
2023/09/24 10:49:22;;;;;;;6.75;1.70;;;17.50;99.90;;;;;;5015924;28;20511;-89
2023/09/24 10:51:48;;;;;;;8.18;2.72;;;17.60;99.90;;;;;;5018076;28;20041;-89
2023/09/24 10:54:15;;;;;;;6.65;1.90;;;17.60;99.90;;;;;;5030794;28;20136;-89
2023/09/24 10:56:48;;;;;;;8.77;2.28;;;17.60;99.90;;;;;;5023026;28;20153;-90
2023/09/24 10:59:14;;;;;;;;;;;17.70;99.90;;;;;;5015465;28;20033;-89
2023/09/24 11:01:40;;;;;;;5.43;1.55;;;17.70;99.90;;;;;;5035338;28;19978;-89
2023/09/24 11:04:08;;;;;;;8.00;2.05;;;17.70;99.90;;;;;;5025089;28;20524;-90
2023/09/24 11:06:34;;;;;;;6.28;1.90;;;17.80;99.90;;;;;;5018660;28;20037;-90
2023/09/24 11:09:22;;;;;;;8.15;2.28;;;17.90;99.90;;;;;;5019002;28;20099;-89
2023/09/24 11:11:48;;;;;;;7.90;2.08;;;18.00;99.90;;;;;;5028126;28;20072;-89
2023/09/24 11:14:15;;;;;;;7.50;2.28;;;18.00;99.90;;;;;;5031502;28;20075;-90
2023/09/24 11:16:41;;;;;;;7.55;2.20;;;18.10;99.90;;;;;;5029184;28;20052;-90
2023/09/24 11:19:06;;;;;;;8.07;2.50;;;18.10;99.40;;;;;;5024156;28;20037;-90
2023/09/24 11:21:32;;;;;;;4.15;1.52;;;18.20;97.10;;;;;;5012858;28;20119;-90
2023/09/24 11:23:57;;;;;;;7.70;1.80;;;18.20;99.90;;;;;;5025306;28;20087;-90
2023/09/24 11:26:29;;;;;;;8.25;2.20;;;18.30;99.90;;;;;;5016037;28;20408;-90
2023/09/24 11:28:56;;;;;;;7.57;1.93;;;18.30;99.50;;;;;;5034748;28;20048;-90
2023/09/24 11:31:26;;;;;;;8.07;2.10;;;18.40;99.90;;;;;;5032341;28;20801;-90
2023/09/24 11:33:58;;;;;;;6.38;2.03;;;18.50;98.20;;;;;;5020621;28;20060;-90
2023/09/24 11:36:27;;;;;;;8.32;2.22;;;18.50;95.60;;;;;;5034311;28;20040;-90
2023/09/24 11:39:03;;;;;;;7.85;2.20;;;18.60;99.90;;;;;;5029797;28;20131;-90
2023/09/24 11:41:28;;;;;;;9.10;1.67;;;18.80;99.90;;;;;;5021345;28;20072;-90
2023/09/24 11:43:57;;;;;;;12.38;2.50;;;18.80;99.90;;;;;;5047768;28;20075;-90
2023/09/24 11:46:32;;;;;;;5.95;1.92;;;18.90;96.50;;;;;;5042155;28;20044;-90
2023/09/24 11:48:59;;;;;;;7.18;1.90;;;18.90;99.00;;;;;;5018097;28;20527;-90
2023/09/24 11:51:25;;;;;;;7.45;1.80;;;19.00;95.50;;;;;;5029876;28;20049;-90
2023/09/24 11:53:51;;;;;;;8.63;2.55;;;19.00;94.70;;;;;;5034583;28;20416;-90
2023/09/24 11:56:17;;;;;;;7.40;2.05;;;19.00;94.30;;;;;;5032856;28;20500;-90
2023/09/24 11:58:42;;;;;;;7.47;1.80;;;19.10;98.60;;;;;;5026327;28;20093;-90
2023/09/24 12:01:10;;;;;;;6.97;1.88;;;19.20;95.20;;;;;;5044832;28;20521;-90
2023/09/24 12:03:35;;;;;;;8.68;2.05;;;19.30;94.80;;;;;;5027896;28;20405;-91
2023/09/24 12:06:01;;;;;;;8.55;1.95;;;19.30;93.60;;;;;;5025346;28;20766;-91
2023/09/24 12:08:27;;;;;;;8.80;2.00;;;19.40;91.30;;;;;;5036498;28;20037;-91
2023/09/24 12:10:53;;;;;;;7.03;1.60;;;19.40;90.80;;;;;;5026419;28;20033;-91
2023/09/24 12:13:19;;;;;;;9.90;2.30;;;19.40;90.70;;;;;;5044164;28;20037;-91
2023/09/24 12:15:45;;;;;;;6.47;1.80;;;19.50;92.70;;;;;;5014862;28;20033;-90
2023/09/24 12:18:11;;;;;;;6.85;1.80;;;19.60;91.80;;;;;;5027409;28;20094;-91
2023/09/24 12:20:39;;;;;;;8.32;1.95;;;19.70;90.20;;;;;;5045352;28;20596;-91
2023/09/24 12:23:08;;;;;;;7.97;1.98;;;19.80;90.10;;;;;;5051094;28;20428;-91
2023/09/24 12:25:38;;;;;;;7.50;2.25;;;19.90;91.60;;;;;;5026149;28;20076;-91
2023/09/24 12:28:04;;;;;;;8.65;1.60;;;20.00;91.00;;;;;;5043621;28;20324;-91
2023/09/24 12:30:30;;;;;;;6.82;1.88;;;20.00;88.80;;;;;;5022923;28;20104;-91
2023/09/24 12:32:55;;;;;;;5.78;1.70;;;20.00;84.80;;;;;;5027305;28;20056;-91
2023/09/24 12:35:21;;;;;;;5.60;1.63;;;20.00;85.00;;;;;;5050855;28;20060;-91
2023/09/24 12:37:47;;;;;;;7.20;1.88;;;20.10;82.60;;;;;;5040976;28;20039;-91
2023/09/24 12:40:13;;;;;;;5.68;1.60;;;20.20;83.60;;;;;;5038498;28;20499;-91
2023/09/24 12:42:40;;;;;;;6.38;1.70;;;20.10;82.50;;;;;;5043533;28;20052;-91
2023/09/24 12:45:07;;;;;;;6.80;1.80;;;20.20;83.80;;;;;;5024866;28;20041;-91